sensor_id;sensor_type;location;lat;lon;timestamp;P1;durP1;ratioP1;P2;durP2;ratioP2
5821;SDS011;2937;48.562;8.022;2022-10-23T00:03:09;11.30;;;8.17;;
5821;SDS011;2937;48.562;8.022;2022-10-23T00:08:01;12.50;;;9.30;;
5821;SDS011;2937;48.562;8.022;2022-10-23T00:12:54;15.80;;;9.53;;
5821;SDS011;2937;48.562;8.022;2022-10-23T00:17:48;13.90;;;9.40;;
5821;SDS011;2937;48.562;8.022;2022-10-23T00:22:40;13.57;;;10.27;;
5821;SDS011;2937;48.562;8.022;2022-10-23T00:27:33;14.70;;;9.43;;
5821;SDS011;2937;48.562;8.022;2022-10-23T00:32:26;13.47;;;9.37;;
5821;SDS011;2937;48.562;8.022;2022-10-23T00:37:20;15.13;;;9.63;;
5821;SDS011;2937;48.562;8.022;2022-10-23T00:42:14;19.10;;;9.97;;
5821;SDS011;2937;48.562;8.022;2022-10-23T00:47:07;15.30;;;10.50;;
5821;SDS011;2937;48.562;8.022;2022-10-23T00:52:01;16.43;;;9.67;;
5821;SDS011;2937;48.562;8.022;2022-10-23T00:56:57;17.10;;;10.17;;
5821;SDS011;2937;48.562;8.022;2022-10-23T01:01:50;12.67;;;9.40;;
5821;SDS011;2937;48.562;8.022;2022-10-23T01:06:44;17.77;;;9.70;;
5821;SDS011;2937;48.562;8.022;2022-10-23T01:11:42;12.73;;;9.13;;
5821;SDS011;2937;48.562;8.022;2022-10-23T01:16:40;12.77;;;10.00;;
5821;SDS011;2937;48.562;8.022;2022-10-23T01:21:38;14.63;;;9.37;;
5821;SDS011;2937;48.562;8.022;2022-10-23T01:26:39;13.23;;;9.57;;
5821;SDS011;2937;48.562;8.022;2022-10-23T01:31:41;16.60;;;10.83;;
5821;SDS011;2937;48.562;8.022;2022-10-23T01:36:36;24.00;;;10.40;;
5821;SDS011;2937;48.562;8.022;2022-10-23T01:41:32;16.10;;;10.80;;
5821;SDS011;2937;48.562;8.022;2022-10-23T01:46:28;12.10;;;10.17;;
5821;SDS011;2937;48.562;8.022;2022-10-23T01:51:24;16.90;;;10.60;;
5821;SDS011;2937;48.562;8.022;2022-10-23T01:56:24;19.13;;;10.83;;
5821;SDS011;2937;48.562;8.022;2022-10-23T02:01:18;17.60;;;11.63;;
5821;SDS011;2937;48.562;8.022;2022-10-23T02:06:15;16.27;;;10.17;;
5821;SDS011;2937;48.562;8.022;2022-10-23T02:11:09;16.20;;;9.83;;
5821;SDS011;2937;48.562;8.022;2022-10-23T02:16:05;19.43;;;10.67;;
5821;SDS011;2937;48.562;8.022;2022-10-23T02:21:01;15.77;;;10.57;;
5821;SDS011;2937;48.562;8.022;2022-10-23T02:25:56;12.63;;;10.00;;
5821;SDS011;2937;48.562;8.022;2022-10-23T02:30:52;17.70;;;10.20;;
5821;SDS011;2937;48.562;8.022;2022-10-23T02:35:46;14.97;;;11.63;;
5821;SDS011;2937;48.562;8.022;2022-10-23T02:40:46;16.73;;;11.40;;
5821;SDS011;2937;48.562;8.022;2022-10-23T02:45:40;19.27;;;11.70;;
5821;SDS011;2937;48.562;8.022;2022-10-23T02:50:39;16.03;;;11.60;;
5821;SDS011;2937;48.562;8.022;2022-10-23T02:55:43;18.80;;;12.20;;
5821;SDS011;2937;48.562;8.022;2022-10-23T03:00:38;17.23;;;10.63;;
5821;SDS011;2937;48.562;8.022;2022-10-23T03:05:35;16.20;;;11.20;;
5821;SDS011;2937;48.562;8.022;2022-10-23T03:10:30;14.77;;;11.03;;
5821;SDS011;2937;48.562;8.022;2022-10-23T03:15:23;14.20;;;9.77;;
5821;SDS011;2937;48.562;8.022;2022-10-23T03:20:15;16.77;;;10.20;;
5821;SDS011;2937;48.562;8.022;2022-10-23T03:25:09;15.70;;;10.57;;
5821;SDS011;2937;48.562;8.022;2022-10-23T03:30:03;13.80;;;9.83;;
5821;SDS011;2937;48.562;8.022;2022-10-23T03:34:58;15.90;;;9.60;;
5821;SDS011;2937;48.562;8.022;2022-10-23T03:39:51;14.27;;;10.27;;
5821;SDS011;2937;48.562;8.022;2022-10-23T03:44:43;16.63;;;10.57;;
5821;SDS011;2937;48.562;8.022;2022-10-23T03:49:37;19.43;;;11.97;;
5821;SDS011;2937;48.562;8.022;2022-10-23T03:54:30;15.30;;;9.97;;
5821;SDS011;2937;48.562;8.022;2022-10-23T03:59:24;15.60;;;9.90;;
5821;SDS011;2937;48.562;8.022;2022-10-23T04:04:17;16.17;;;10.77;;
5821;SDS011;2937;48.562;8.022;2022-10-23T04:09:10;16.33;;;10.27;;
5821;SDS011;2937;48.562;8.022;2022-10-23T04:14:09;13.73;;;9.70;;
5821;SDS011;2937;48.562;8.022;2022-10-23T04:19:02;13.47;;;9.27;;
5821;SDS011;2937;48.562;8.022;2022-10-23T04:23:55;16.07;;;9.10;;
5821;SDS011;2937;48.562;8.022;2022-10-23T04:28:49;14.60;;;9.43;;
5821;SDS011;2937;48.562;8.022;2022-10-23T04:33:41;16.00;;;10.00;;
5821;SDS011;2937;48.562;8.022;2022-10-23T04:38:44;13.77;;;9.30;;
5821;SDS011;2937;48.562;8.022;2022-10-23T04:43:38;13.30;;;9.70;;
5821;SDS011;2937;48.562;8.022;2022-10-23T04:48:32;13.80;;;9.20;;
5821;SDS011;2937;48.562;8.022;2022-10-23T04:53:57;14.17;;;9.57;;
5821;SDS011;2937;48.562;8.022;2022-10-23T04:59:08;13.97;;;10.70;;
5821;SDS011;2937;48.562;8.022;2022-10-23T05:04:04;16.00;;;10.90;;
5821;SDS011;2937;48.562;8.022;2022-10-23T05:09:05;15.10;;;11.27;;
5821;SDS011;2937;48.562;8.022;2022-10-23T05:14:18;15.63;;;10.40;;
5821;SDS011;2937;48.562;8.022;2022-10-23T05:19:16;21.53;;;10.10;;
5821;SDS011;2937;48.562;8.022;2022-10-23T05:24:14;12.53;;;9.03;;
5821;SDS011;2937;48.562;8.022;2022-10-23T05:29:17;11.20;;;8.73;;
5821;SDS011;2937;48.562;8.022;2022-10-23T05:34:10;14.70;;;7.47;;
5821;SDS011;2937;48.562;8.022;2022-10-23T05:39:08;11.00;;;7.80;;
5821;SDS011;2937;48.562;8.022;2022-10-23T05:44:01;12.53;;;7.13;;
5821;SDS011;2937;48.562;8.022;2022-10-23T05:49:15;11.87;;;6.73;;
5821;SDS011;2937;48.562;8.022;2022-10-23T05:54:31;12.87;;;6.07;;
5821;SDS011;2937;48.562;8.022;2022-10-23T05:59:42;12.33;;;6.03;;
5821;SDS011;2937;48.562;8.022;2022-10-23T06:04:46;7.20;;;5.43;;
5821;SDS011;2937;48.562;8.022;2022-10-23T06:09:58;10.63;;;5.97;;
5821;SDS011;2937;48.562;8.022;2022-10-23T06:14:51;10.23;;;5.33;;
5821;SDS011;2937;48.562;8.022;2022-10-23T06:19:50;8.13;;;5.50;;
5821;SDS011;2937;48.562;8.022;2022-10-23T06:24:43;10.20;;;6.00;;
5821;SDS011;2937;48.562;8.022;2022-10-23T06:29:41;13.23;;;8.90;;
5821;SDS011;2937;48.562;8.022;2022-10-23T06:34:33;11.70;;;9.90;;
5821;SDS011;2937;48.562;8.022;2022-10-23T06:39:27;16.20;;;11.57;;
5821;SDS011;2937;48.562;8.022;2022-10-23T06:44:37;15.00;;;9.13;;
5821;SDS011;2937;48.562;8.022;2022-10-23T06:49:35;12.53;;;9.70;;
5821;SDS011;2937;48.562;8.022;2022-10-23T06:54:29;16.17;;;10.00;;
5821;SDS011;2937;48.562;8.022;2022-10-23T06:59:41;11.70;;;8.03;;
5821;SDS011;2937;48.562;8.022;2022-10-23T07:04:36;10.80;;;8.40;;
5821;SDS011;2937;48.562;8.022;2022-10-23T07:09:35;12.17;;;8.30;;
5821;SDS011;2937;48.562;8.022;2022-10-23T07:14:42;12.73;;;9.43;;
5821;SDS011;2937;48.562;8.022;2022-10-23T07:19:37;19.83;;;15.77;;
5821;SDS011;2937;48.562;8.022;2022-10-23T07:24:35;13.50;;;9.07;;
5821;SDS011;2937;48.562;8.022;2022-10-23T07:29:37;19.30;;;9.50;;
5821;SDS011;2937;48.562;8.022;2022-10-23T07:34:30;12.80;;;7.20;;
5821;SDS011;2937;48.562;8.022;2022-10-23T07:39:39;6.73;;;3.93;;
5821;SDS011;2937;48.562;8.022;2022-10-23T07:44:32;10.57;;;6.63;;
5821;SDS011;2937;48.562;8.022;2022-10-23T07:49:25;24.00;;;13.23;;
5821;SDS011;2937;48.562;8.022;2022-10-23T07:54:17;13.47;;;6.83;;
5821;SDS011;2937;48.562;8.022;2022-10-23T07:59:14;5.40;;;4.20;;
5821;SDS011;2937;48.562;8.022;2022-10-23T08:04:13;6.60;;;4.67;;
5821;SDS011;2937;48.562;8.022;2022-10-23T08:09:17;7.43;;;4.07;;
5821;SDS011;2937;48.562;8.022;2022-10-23T08:14:11;4.47;;;3.73;;
5821;SDS011;2937;48.562;8.022;2022-10-23T08:19:07;6.40;;;3.30;;
5821;SDS011;2937;48.562;8.022;2022-10-23T08:24:03;6.17;;;3.00;;
5821;SDS011;2937;48.562;8.022;2022-10-23T08:28:56;3.33;;;2.40;;
5821;SDS011;2937;48.562;8.022;2022-10-23T08:33:50;8.03;;;2.20;;
5821;SDS011;2937;48.562;8.022;2022-10-23T08:38:44;6.80;;;2.20;;
5821;SDS011;2937;48.562;8.022;2022-10-23T08:43:42;2.70;;;1.77;;
5821;SDS011;2937;48.562;8.022;2022-10-23T08:48:49;3.20;;;1.90;;
5821;SDS011;2937;48.562;8.022;2022-10-23T08:54:06;2.60;;;1.97;;
5821;SDS011;2937;48.562;8.022;2022-10-23T08:59:03;2.27;;;1.67;;
5821;SDS011;2937;48.562;8.022;2022-10-23T09:04:01;3.93;;;2.00;;
5821;SDS011;2937;48.562;8.022;2022-10-23T09:08:55;4.60;;;2.20;;
5821;SDS011;2937;48.562;8.022;2022-10-23T09:14:06;6.63;;;2.00;;
5821;SDS011;2937;48.562;8.022;2022-10-23T09:19:01;4.33;;;2.00;;
5821;SDS011;2937;48.562;8.022;2022-10-23T09:23:53;3.37;;;2.00;;
5821;SDS011;2937;48.562;8.022;2022-10-23T09:28:47;8.63;;;1.90;;
5821;SDS011;2937;48.562;8.022;2022-10-23T09:33:41;3.03;;;2.00;;
5821;SDS011;2937;48.562;8.022;2022-10-23T09:38:47;8.33;;;1.70;;
5821;SDS011;2937;48.562;8.022;2022-10-23T09:43:39;5.47;;;2.10;;
5821;SDS011;2937;48.562;8.022;2022-10-23T09:48:32;3.43;;;2.10;;
5821;SDS011;2937;48.562;8.022;2022-10-23T09:53:31;3.00;;;2.07;;
5821;SDS011;2937;48.562;8.022;2022-10-23T09:58:26;5.20;;;2.30;;
5821;SDS011;2937;48.562;8.022;2022-10-23T10:03:21;8.53;;;2.23;;
5821;SDS011;2937;48.562;8.022;2022-10-23T10:08:36;2.87;;;2.03;;
5821;SDS011;2937;48.562;8.022;2022-10-23T10:13:38;2.70;;;1.93;;
5821;SDS011;2937;48.562;8.022;2022-10-23T10:18:37;3.83;;;2.10;;
5821;SDS011;2937;48.562;8.022;2022-10-23T10:23:34;2.93;;;1.70;;
5821;SDS011;2937;48.562;8.022;2022-10-23T10:28:39;2.37;;;1.97;;
5821;SDS011;2937;48.562;8.022;2022-10-23T10:33:38;7.13;;;1.87;;
5821;SDS011;2937;48.562;8.022;2022-10-23T10:38:38;2.83;;;1.50;;
5821;SDS011;2937;48.562;8.022;2022-10-23T10:43:34;8.20;;;2.10;;
5821;SDS011;2937;48.562;8.022;2022-10-23T10:54:09;4.67;;;2.00;;
5821;SDS011;2937;48.562;8.022;2022-10-23T10:59:09;4.57;;;1.90;;
5821;SDS011;2937;48.562;8.022;2022-10-23T11:04:03;2.73;;;1.80;;
5821;SDS011;2937;48.562;8.022;2022-10-23T11:08:58;2.80;;;1.83;;
5821;SDS011;2937;48.562;8.022;2022-10-23T11:14:14;3.50;;;1.80;;
5821;SDS011;2937;48.562;8.022;2022-10-23T11:19:10;4.30;;;1.80;;
5821;SDS011;2937;48.562;8.022;2022-10-23T11:24:17;2.63;;;1.83;;
5821;SDS011;2937;48.562;8.022;2022-10-23T11:29:21;3.70;;;2.00;;
5821;SDS011;2937;48.562;8.022;2022-10-23T11:34:21;2.30;;;1.70;;
5821;SDS011;2937;48.562;8.022;2022-10-23T11:39:19;5.27;;;1.80;;
5821;SDS011;2937;48.562;8.022;2022-10-23T11:44:23;4.93;;;1.70;;
5821;SDS011;2937;48.562;8.022;2022-10-23T11:49:18;6.47;;;2.27;;
5821;SDS011;2937;48.562;8.022;2022-10-23T11:54:21;5.20;;;2.50;;
5821;SDS011;2937;48.562;8.022;2022-10-23T11:59:20;10.57;;;8.43;;
5821;SDS011;2937;48.562;8.022;2022-10-23T12:04:17;15.77;;;11.90;;
5821;SDS011;2937;48.562;8.022;2022-10-23T12:09:21;4.80;;;2.60;;
5821;SDS011;2937;48.562;8.022;2022-10-23T12:14:31;13.50;;;2.20;;
5821;SDS011;2937;48.562;8.022;2022-10-23T12:19:26;3.00;;;2.10;;
5821;SDS011;2937;48.562;8.022;2022-10-23T12:29:37;5.53;;;2.20;;
5821;SDS011;2937;48.562;8.022;2022-10-23T12:34:38;3.40;;;2.40;;
5821;SDS011;2937;48.562;8.022;2022-10-23T12:39:35;2.53;;;2.00;;
5821;SDS011;2937;48.562;8.022;2022-10-23T12:44:29;3.47;;;2.20;;
5821;SDS011;2937;48.562;8.022;2022-10-23T12:49:22;12.80;;;2.53;;
5821;SDS011;2937;48.562;8.022;2022-10-23T12:54:17;3.63;;;2.40;;
5821;SDS011;2937;48.562;8.022;2022-10-23T12:59:12;3.13;;;2.00;;
5821;SDS011;2937;48.562;8.022;2022-10-23T13:04:07;3.40;;;2.10;;
5821;SDS011;2937;48.562;8.022;2022-10-23T13:09:03;2.43;;;2.13;;
5821;SDS011;2937;48.562;8.022;2022-10-23T13:14:11;4.53;;;2.03;;
5821;SDS011;2937;48.562;8.022;2022-10-23T13:19:04;3.97;;;2.20;;
5821;SDS011;2937;48.562;8.022;2022-10-23T13:23:56;4.83;;;2.40;;
5821;SDS011;2937;48.562;8.022;2022-10-23T13:28:49;2.80;;;2.20;;
5821;SDS011;2937;48.562;8.022;2022-10-23T13:33:43;2.93;;;2.33;;
5821;SDS011;2937;48.562;8.022;2022-10-23T13:38:37;3.30;;;2.53;;
5821;SDS011;2937;48.562;8.022;2022-10-23T13:43:32;4.53;;;2.70;;
5821;SDS011;2937;48.562;8.022;2022-10-23T13:48:25;4.00;;;2.40;;
5821;SDS011;2937;48.562;8.022;2022-10-23T13:53:19;6.63;;;2.90;;
5821;SDS011;2937;48.562;8.022;2022-10-23T13:58:11;3.20;;;2.73;;
5821;SDS011;2937;48.562;8.022;2022-10-23T14:03:04;3.40;;;2.03;;
5821;SDS011;2937;48.562;8.022;2022-10-23T14:07:56;2.90;;;2.00;;
5821;SDS011;2937;48.562;8.022;2022-10-23T14:12:50;9.00;;;2.50;;
5821;SDS011;2937;48.562;8.022;2022-10-23T14:17:45;2.80;;;2.60;;
5821;SDS011;2937;48.562;8.022;2022-10-23T14:22:37;4.03;;;2.47;;
5821;SDS011;2937;48.562;8.022;2022-10-23T14:27:30;2.60;;;1.80;;
5821;SDS011;2937;48.562;8.022;2022-10-23T14:32:24;9.30;;;5.90;;
5821;SDS011;2937;48.562;8.022;2022-10-23T14:37:16;4.73;;;3.43;;
5821;SDS011;2937;48.562;8.022;2022-10-23T14:42:09;6.07;;;4.13;;
5821;SDS011;2937;48.562;8.022;2022-10-23T14:47:02;7.33;;;3.37;;
5821;SDS011;2937;48.562;8.022;2022-10-23T14:51:56;3.70;;;2.67;;
5821;SDS011;2937;48.562;8.022;2022-10-23T14:56:48;6.13;;;2.43;;
5821;SDS011;2937;48.562;8.022;2022-10-23T15:01:41;6.70;;;2.50;;
5821;SDS011;2937;48.562;8.022;2022-10-23T15:06:38;3.80;;;2.57;;
5821;SDS011;2937;48.562;8.022;2022-10-23T15:11:33;2.67;;;2.40;;
5821;SDS011;2937;48.562;8.022;2022-10-23T15:16:25;6.53;;;2.50;;
5821;SDS011;2937;48.562;8.022;2022-10-23T15:21:18;6.73;;;2.50;;
5821;SDS011;2937;48.562;8.022;2022-10-23T15:26:12;4.77;;;3.40;;
5821;SDS011;2937;48.562;8.022;2022-10-23T15:36:24;4.40;;;2.80;;
5821;SDS011;2937;48.562;8.022;2022-10-23T15:41:18;5.33;;;2.43;;
5821;SDS011;2937;48.562;8.022;2022-10-23T15:46:12;3.27;;;2.60;;
5821;SDS011;2937;48.562;8.022;2022-10-23T15:51:04;4.70;;;2.67;;
5821;SDS011;2937;48.562;8.022;2022-10-23T15:55:58;3.40;;;2.53;;
5821;SDS011;2937;48.562;8.022;2022-10-23T16:00:51;3.87;;;2.60;;
5821;SDS011;2937;48.562;8.022;2022-10-23T16:05:43;2.90;;;2.70;;
5821;SDS011;2937;48.562;8.022;2022-10-23T16:10:37;6.53;;;2.70;;
5821;SDS011;2937;48.562;8.022;2022-10-23T16:15:31;4.27;;;2.87;;
5821;SDS011;2937;48.562;8.022;2022-10-23T16:20:26;7.30;;;3.10;;
5821;SDS011;2937;48.562;8.022;2022-10-23T16:25:18;6.07;;;3.80;;
5821;SDS011;2937;48.562;8.022;2022-10-23T16:30:11;6.00;;;3.57;;
5821;SDS011;2937;48.562;8.022;2022-10-23T16:35:06;4.40;;;3.27;;
5821;SDS011;2937;48.562;8.022;2022-10-23T16:40:16;5.50;;;3.90;;
5821;SDS011;2937;48.562;8.022;2022-10-23T16:45:28;10.27;;;6.50;;
5821;SDS011;2937;48.562;8.022;2022-10-23T16:50:27;15.00;;;6.90;;
5821;SDS011;2937;48.562;8.022;2022-10-23T16:55:19;9.10;;;5.90;;
5821;SDS011;2937;48.562;8.022;2022-10-23T17:00:12;11.97;;;7.73;;
5821;SDS011;2937;48.562;8.022;2022-10-23T17:05:05;14.90;;;10.40;;
5821;SDS011;2937;48.562;8.022;2022-10-23T17:09:59;10.27;;;4.90;;
5821;SDS011;2937;48.562;8.022;2022-10-23T17:14:51;8.43;;;3.90;;
5821;SDS011;2937;48.562;8.022;2022-10-23T17:19:44;11.97;;;3.60;;
5821;SDS011;2937;48.562;8.022;2022-10-23T17:24:37;11.20;;;3.80;;
5821;SDS011;2937;48.562;8.022;2022-10-23T17:29:31;12.50;;;3.60;;
5821;SDS011;2937;48.562;8.022;2022-10-23T17:34:23;10.20;;;4.13;;
5821;SDS011;2937;48.562;8.022;2022-10-23T17:39:18;9.17;;;3.73;;
5821;SDS011;2937;48.562;8.022;2022-10-23T17:44:10;6.47;;;3.50;;
5821;SDS011;2937;48.562;8.022;2022-10-23T17:49:04;10.60;;;3.60;;
5821;SDS011;2937;48.562;8.022;2022-10-23T17:54:03;13.13;;;4.20;;
5821;SDS011;2937;48.562;8.022;2022-10-23T17:58:58;5.67;;;3.50;;
5821;SDS011;2937;48.562;8.022;2022-10-23T18:03:51;10.93;;;5.17;;
5821;SDS011;2937;48.562;8.022;2022-10-23T18:08:45;7.93;;;4.50;;
5821;SDS011;2937;48.562;8.022;2022-10-23T18:13:38;11.03;;;4.60;;
5821;SDS011;2937;48.562;8.022;2022-10-23T18:18:30;7.20;;;3.57;;
5821;SDS011;2937;48.562;8.022;2022-10-23T18:23:23;6.33;;;3.20;;
5821;SDS011;2937;48.562;8.022;2022-10-23T18:28:17;7.50;;;3.70;;
5821;SDS011;2937;48.562;8.022;2022-10-23T18:33:10;7.07;;;3.40;;
5821;SDS011;2937;48.562;8.022;2022-10-23T18:38:02;8.43;;;3.63;;
5821;SDS011;2937;48.562;8.022;2022-10-23T18:42:55;11.30;;;3.73;;
5821;SDS011;2937;48.562;8.022;2022-10-23T18:47:49;8.70;;;3.97;;
5821;SDS011;2937;48.562;8.022;2022-10-23T18:52:41;5.13;;;3.70;;
5821;SDS011;2937;48.562;8.022;2022-10-23T18:57:34;9.53;;;4.23;;
5821;SDS011;2937;48.562;8.022;2022-10-23T19:02:27;9.60;;;3.83;;
5821;SDS011;2937;48.562;8.022;2022-10-23T19:07:21;8.10;;;4.07;;
5821;SDS011;2937;48.562;8.022;2022-10-23T19:12:13;7.53;;;4.30;;
5821;SDS011;2937;48.562;8.022;2022-10-23T19:17:08;12.90;;;4.90;;
5821;SDS011;2937;48.562;8.022;2022-10-23T19:22:02;9.73;;;4.37;;
5821;SDS011;2937;48.562;8.022;2022-10-23T19:26:56;10.67;;;4.03;;
5821;SDS011;2937;48.562;8.022;2022-10-23T19:31:51;15.07;;;4.00;;
5821;SDS011;2937;48.562;8.022;2022-10-23T19:36:43;13.20;;;4.40;;
5821;SDS011;2937;48.562;8.022;2022-10-23T19:41:36;14.80;;;4.73;;
5821;SDS011;2937;48.562;8.022;2022-10-23T19:46:30;17.10;;;4.47;;
5821;SDS011;2937;48.562;8.022;2022-10-23T19:51:22;15.27;;;4.03;;
5821;SDS011;2937;48.562;8.022;2022-10-23T19:56:15;11.43;;;3.53;;
5821;SDS011;2937;48.562;8.022;2022-10-23T20:01:09;13.10;;;4.07;;
5821;SDS011;2937;48.562;8.022;2022-10-23T20:06:03;13.40;;;4.00;;
5821;SDS011;2937;48.562;8.022;2022-10-23T20:10:58;13.50;;;3.73;;
5821;SDS011;2937;48.562;8.022;2022-10-23T20:15:51;11.43;;;3.83;;
5821;SDS011;2937;48.562;8.022;2022-10-23T20:20:43;12.00;;;3.70;;
5821;SDS011;2937;48.562;8.022;2022-10-23T20:25:37;13.10;;;3.30;;
5821;SDS011;2937;48.562;8.022;2022-10-23T20:30:30;12.57;;;4.00;;
5821;SDS011;2937;48.562;8.022;2022-10-23T20:35:22;12.77;;;2.90;;
5821;SDS011;2937;48.562;8.022;2022-10-23T20:40:15;11.60;;;3.03;;
5821;SDS011;2937;48.562;8.022;2022-10-23T20:45:09;12.27;;;3.40;;
5821;SDS011;2937;48.562;8.022;2022-10-23T20:50:02;13.27;;;3.20;;
5821;SDS011;2937;48.562;8.022;2022-10-23T20:54:55;9.67;;;2.87;;
5821;SDS011;2937;48.562;8.022;2022-10-23T20:59:47;11.33;;;2.77;;
5821;SDS011;2937;48.562;8.022;2022-10-23T21:04:41;13.17;;;3.43;;
5821;SDS011;2937;48.562;8.022;2022-10-23T21:09:34;9.63;;;2.93;;
5821;SDS011;2937;48.562;8.022;2022-10-23T21:14:28;12.03;;;3.20;;
5821;SDS011;2937;48.562;8.022;2022-10-23T21:19:20;7.10;;;2.27;;
5821;SDS011;2937;48.562;8.022;2022-10-23T21:24:15;7.23;;;1.80;;
5821;SDS011;2937;48.562;8.022;2022-10-23T21:29:07;6.13;;;1.80;;
5821;SDS011;2937;48.562;8.022;2022-10-23T21:34:09;7.47;;;2.53;;
5821;SDS011;2937;48.562;8.022;2022-10-23T21:39:02;3.63;;;1.70;;
5821;SDS011;2937;48.562;8.022;2022-10-23T21:43:57;7.80;;;2.30;;
5821;SDS011;2937;48.562;8.022;2022-10-23T21:48:50;10.30;;;2.10;;
5821;SDS011;2937;48.562;8.022;2022-10-23T21:53:43;8.77;;;2.03;;
5821;SDS011;2937;48.562;8.022;2022-10-23T21:58:35;7.30;;;1.97;;
5821;SDS011;2937;48.562;8.022;2022-10-23T22:03:29;7.70;;;1.70;;
5821;SDS011;2937;48.562;8.022;2022-10-23T22:08:22;9.67;;;2.23;;
5821;SDS011;2937;48.562;8.022;2022-10-23T22:13:14;11.77;;;2.17;;
5821;SDS011;2937;48.562;8.022;2022-10-23T22:18:07;12.53;;;2.70;;
5821;SDS011;2937;48.562;8.022;2022-10-23T22:23:01;6.90;;;2.10;;
5821;SDS011;2937;48.562;8.022;2022-10-23T22:27:53;9.53;;;2.10;;
5821;SDS011;2937;48.562;8.022;2022-10-23T22:32:46;7.03;;;2.17;;
5821;SDS011;2937;48.562;8.022;2022-10-23T22:37:38;8.60;;;2.20;;
5821;SDS011;2937;48.562;8.022;2022-10-23T22:42:32;9.73;;;2.60;;
5821;SDS011;2937;48.562;8.022;2022-10-23T22:47:27;8.27;;;2.77;;
5821;SDS011;2937;48.562;8.022;2022-10-23T22:52:20;9.07;;;2.77;;
5821;SDS011;2937;48.562;8.022;2022-10-23T22:57:12;11.40;;;2.23;;
5821;SDS011;2937;48.562;8.022;2022-10-23T23:02:06;10.70;;;2.33;;
5821;SDS011;2937;48.562;8.022;2022-10-23T23:06:59;8.30;;;2.30;;
5821;SDS011;2937;48.562;8.022;2022-10-23T23:11:51;9.30;;;2.63;;
5821;SDS011;2937;48.562;8.022;2022-10-23T23:16:44;10.83;;;2.53;;
5821;SDS011;2937;48.562;8.022;2022-10-23T23:21:38;5.93;;;2.40;;
5821;SDS011;2937;48.562;8.022;2022-10-23T23:26:31;11.20;;;2.67;;
5821;SDS011;2937;48.562;8.022;2022-10-23T23:31:24;13.83;;;2.93;;
5821;SDS011;2937;48.562;8.022;2022-10-23T23:36:17;15.77;;;3.13;;
5821;SDS011;2937;48.562;8.022;2022-10-23T23:41:12;7.47;;;2.60;;
5821;SDS011;2937;48.562;8.022;2022-10-23T23:46:05;6.70;;;2.97;;
5821;SDS011;2937;48.562;8.022;2022-10-23T23:50:58;9.83;;;2.90;;
5821;SDS011;2937;48.562;8.022;2022-10-23T23:55:50;15.27;;;3.07;;
